Time;durP1;ratioP1;P1;durP2;ratioP2;P2;SDS_P1;SDS_P2;PMS_P1;PMS_P2;Temp;Humidity;BMP_temperature;BMP_pressure;BME280_temperature;BME280_humidity;BME280_pressure;Samples;Min_cycle;Max_cycle;Signal;HPM_P1;HPM_P2
2022/03/07 00:01:04;;;;;;;1.23;0.98;;;;;;;;;;5074258;28;20048;-47
2022/03/07 00:03:30;;;;;;;2.25;1.30;;;;;;;;;;5074063;28;20045;-47
2022/03/07 00:05:56;;;;;;;3.03;0.98;;;;;;;;;;5074353;28;20036;-47
2022/03/07 00:08:22;;;;;;;2.08;0.95;;;;;;;;;;5074271;28;20471;-46
2022/03/07 00:10:48;;;;;;;1.30;0.90;;;;;;;;;;5074300;28;20117;-47
2022/03/07 00:13:14;;;;;;;1.33;0.80;;;;;;;;;;5074127;28;20108;-47
2022/03/07 00:15:40;;;;;;;1.55;0.80;;;;;;;;;;5074148;28;20107;-46
2022/03/07 00:18:06;;;;;;;2.65;1.02;;;;;;;;;;5071496;28;20527;-47
2022/03/07 00:20:33;;;;;;;2.33;0.93;;;;;;;;;;5074007;28;20028;-47
2022/03/07 00:22:59;;;;;;;1.77;1.02;;;;;;;;;;5073999;28;20063;-47
2022/03/07 00:25:25;;;;;;;1.00;0.75;;;;;;;;;;5073879;28;20387;-46
2022/03/07 00:27:51;;;;;;;2.10;0.90;;;;;;;;;;5073869;28;20032;-47
2022/03/07 00:30:18;;;;;;;1.40;0.80;;;;;;;;;;5073825;28;20035;-47
2022/03/07 00:32:44;;;;;;;1.23;0.82;;;;;;;;;;5073857;28;20024;-47
2022/03/07 00:35:10;;;;;;;1.55;0.90;;;;;;;;;;5073739;28;20029;-47
2022/03/07 00:37:37;;;;;;;1.17;0.80;;;;;;;;;;5073750;28;20024;-47
2022/03/07 00:40:05;;;;;;;2.30;0.90;;;;;;;;;;5073497;28;20033;-47
2022/03/07 00:42:31;;;;;;;1.20;0.80;;;;;;;;;;5073741;28;20388;-48
2022/03/07 00:44:57;;;;;;;1.15;0.82;;;;;;;;;;5073591;28;20515;-47
2022/03/07 00:47:23;;;;;;;1.75;0.93;;;;;;;;;;5073457;28;20131;-48
2022/03/07 00:49:49;;;;;;;1.90;0.70;;;;;;;;;;5073525;28;20112;-47
2022/03/07 00:52:15;;;;;;;1.55;0.98;;;;;;;;;;5073397;28;20032;-48
2022/03/07 00:54:41;;;;;;;2.10;0.70;;;;;;;;;;5073381;28;20028;-46
2022/03/07 00:57:07;;;;;;;1.48;0.77;;;;;;;;;;5073231;28;20111;-48
2022/03/07 00:59:33;;;;;;;1.85;0.70;;;;;;;;;;5073246;28;20033;-47
2022/03/07 01:01:59;;;;;;;2.28;0.70;;;;;;;;;;5072714;28;20078;-47
2022/03/07 01:04:25;;;;;;;1.30;0.82;;;;;;;;;;5073190;28;20403;-47
2022/03/07 01:06:51;;;;;;;1.45;0.85;;;;;;;;;;5073153;28;20035;-46
2022/03/07 01:09:17;;;;;;;1.13;0.63;;;;;;;;;;5073195;28;20040;-47
2022/03/07 01:11:43;;;;;;;2.13;1.20;;;;;;;;;;5073003;28;20227;-48
2022/03/07 01:14:09;;;;;;;1.02;0.80;;;;;;;;;;5072942;28;20055;-47
2022/03/07 01:16:35;;;;;;;1.00;0.70;;;;;;;;;;5073138;28;20028;-47
2022/03/07 01:19:01;;;;;;;1.13;0.70;;;;;;;;;;5072823;28;20032;-47
2022/03/07 01:21:27;;;;;;;1.17;0.77;;;;;;;;;;5072751;28;20068;-47
2022/03/07 01:23:53;;;;;;;1.67;0.68;;;;;;;;;;5072774;28;20518;-47
2022/03/07 01:26:19;;;;;;;1.15;0.98;;;;;;;;;;5072782;28;20550;-47
2022/03/07 01:28:45;;;;;;;1.55;0.77;;;;;;;;;;5072492;28;20422;-47
2022/03/07 01:31:11;;;;;;;2.80;0.80;;;;;;;;;;5072691;28;20138;-47
2022/03/07 01:33:37;;;;;;;0.77;0.68;;;;;;;;;;5072634;28;20032;-47
2022/03/07 01:36:03;;;;;;;1.17;0.70;;;;;;;;;;5072955;28;20024;-46
2022/03/07 01:38:29;;;;;;;2.33;0.90;;;;;;;;;;5072617;28;20107;-47
2022/03/07 01:40:55;;;;;;;0.63;0.52;;;;;;;;;;5072520;28;20108;-47
2022/03/07 01:43:21;;;;;;;0.57;0.55;;;;;;;;;;5072499;28;20035;-47
2022/03/07 01:45:47;;;;;;;0.90;0.52;;;;;;;;;;5072843;28;20102;-47
2022/03/07 01:48:13;;;;;;;1.27;0.70;;;;;;;;;;5072359;28;20437;-47
2022/03/07 01:50:39;;;;;;;0.70;0.60;;;;;;;;;;5072403;28;20067;-47
2022/03/07 01:53:05;;;;;;;2.00;0.98;;;;;;;;;;5072388;28;20028;-48
2022/03/07 01:55:31;;;;;;;1.10;0.63;;;;;;;;;;5072294;28;20021;-46
2022/03/07 01:57:57;;;;;;;1.02;0.60;;;;;;;;;;5072307;28;20487;-47
2022/03/07 02:00:24;;;;;;;1.55;0.75;;;;;;;;;;5072285;28;20028;-47
2022/03/07 02:02:50;;;;;;;2.45;0.80;;;;;;;;;;5072056;28;20457;-47
2022/03/07 02:05:16;;;;;;;0.88;0.60;;;;;;;;;;5072278;28;20028;-47
2022/03/07 02:07:43;;;;;;;0.85;0.57;;;;;;;;;;5072223;28;20029;-46
2022/03/07 02:10:09;;;;;;;2.10;0.77;;;;;;;;;;5072170;28;20025;-46
2022/03/07 02:12:36;;;;;;;0.93;0.75;;;;;;;;;;5072130;28;20035;-47
2022/03/07 02:15:02;;;;;;;0.65;0.60;;;;;;;;;;5072278;28;20060;-48
2022/03/07 02:17:29;;;;;;;1.42;0.90;;;;;;;;;;5072148;28;20111;-46
2022/03/07 02:19:55;;;;;;;1.30;0.80;;;;;;;;;;5072030;28;20119;-47
2022/03/07 02:22:21;;;;;;;1.58;0.90;;;;;;;;;;5072157;28;20487;-48
2022/03/07 02:24:47;;;;;;;1.33;0.63;;;;;;;;;;5072032;28;20070;-47
2022/03/07 02:27:18;;;;;;;1.33;0.70;;;;;;;;;;5071957;28;20040;-46
2022/03/07 02:29:44;;;;;;;0.40;0.40;;;;;;;;;;5071955;28;20067;-47
2022/03/07 02:32:10;;;;;;;0.80;0.55;;;;;;;;;;5071965;28;20383;-46
2022/03/07 02:34:36;;;;;;;0.95;0.60;;;;;;;;;;5071958;28;20107;-47
2022/03/07 02:37:02;;;;;;;1.10;0.50;;;;;;;;;;5071887;28;20111;-47
2022/03/07 02:39:28;;;;;;;1.33;0.90;;;;;;;;;;5071904;28;20036;-47
2022/03/07 02:41:55;;;;;;;1.42;0.50;;;;;;;;;;5075398;28;20089;-47
2022/03/07 02:44:21;;;;;;;0.95;0.65;;;;;;;;;;5075900;28;20031;-46
2022/03/07 02:46:47;;;;;;;1.58;0.63;;;;;;;;;;5075849;28;20025;-47
2022/03/07 02:49:13;;;;;;;1.00;0.75;;;;;;;;;;5075807;28;20045;-47
2022/03/07 02:51:39;;;;;;;1.35;1.05;;;;;;;;;;5075728;28;20102;-47
2022/03/07 02:54:05;;;;;;;1.35;0.57;;;;;;;;;;5075704;28;20468;-47
2022/03/07 02:56:31;;;;;;;1.38;0.70;;;;;;;;;;5075689;28;20386;-47
2022/03/07 02:58:57;;;;;;;1.02;0.75;;;;;;;;;;5075801;28;20021;-46
2022/03/07 03:01:23;;;;;;;3.90;0.70;;;;;;;;;;5075438;28;20113;-47
2022/03/07 03:03:49;;;;;;;1.13;0.68;;;;;;;;;;5075293;28;20036;-47
2022/03/07 03:06:15;;;;;;;2.10;0.73;;;;;;;;;;5075475;28;20029;-47
2022/03/07 03:08:42;;;;;;;1.98;0.60;;;;;;;;;;5075639;28;20028;-47
2022/03/07 03:11:08;;;;;;;1.23;0.70;;;;;;;;;;5075586;28;20028;-47
2022/03/07 03:13:34;;;;;;;0.80;0.50;;;;;;;;;;5075293;28;20035;-47
2022/03/07 03:16:00;;;;;;;0.70;0.70;;;;;;;;;;5075323;28;20111;-47
2022/03/07 03:18:26;;;;;;;0.55;0.55;;;;;;;;;;5075232;28;20028;-47
2022/03/07 03:20:53;;;;;;;0.88;0.52;;;;;;;;;;5075112;28;20025;-47
2022/03/07 03:23:19;;;;;;;0.75;0.60;;;;;;;;;;5075166;28;20040;-47
2022/03/07 03:25:46;;;;;;;1.35;0.60;;;;;;;;;;5075033;28;20035;-48
2022/03/07 03:28:12;;;;;;;2.97;0.75;;;;;;;;;;5075038;28;20036;-47
2022/03/07 03:30:38;;;;;;;0.80;0.75;;;;;;;;;;5075040;28;20031;-46
2022/03/07 03:33:04;;;;;;;1.63;0.80;;;;;;;;;;5074959;28;20025;-47
2022/03/07 03:35:30;;;;;;;1.65;0.68;;;;;;;;;;5075022;28;20020;-47
2022/03/07 03:37:56;;;;;;;0.52;0.50;;;;;;;;;;5074830;28;20029;-48
2022/03/07 03:40:22;;;;;;;1.30;0.70;;;;;;;;;;5074826;28;20023;-47
2022/03/07 03:42:49;;;;;;;1.05;0.60;;;;;;;;;;5074751;28;20475;-46
2022/03/07 03:45:14;;;;;;;0.55;0.38;;;;;;;;;;5074680;28;20599;-46
2022/03/07 03:47:42;;;;;;;3.53;0.65;;;;;;;;;;5074679;28;20064;-48
2022/03/07 03:50:09;;;;;;;1.00;0.70;;;;;;;;;;5074571;28;20479;-47
2022/03/07 03:52:35;;;;;;;0.77;0.68;;;;;;;;;;5074280;28;20368;-47
2022/03/07 03:55:02;;;;;;;1.05;0.60;;;;;;;;;;5074635;28;20035;-46
2022/03/07 03:57:28;;;;;;;0.60;0.60;;;;;;;;;;5074568;28;20380;-47
2022/03/07 03:59:54;;;;;;;0.68;0.68;;;;;;;;;;5074553;28;20116;-47
2022/03/07 04:02:20;;;;;;;1.02;0.60;;;;;;;;;;5074172;28;20080;-48
2022/03/07 04:04:46;;;;;;;1.40;0.70;;;;;;;;;;5074335;28;20494;-47
2022/03/07 04:07:12;;;;;;;1.40;0.60;;;;;;;;;;5074349;28;20037;-47
2022/03/07 04:09:38;;;;;;;0.70;0.68;;;;;;;;;;5074198;28;20056;-46
2022/03/07 04:12:05;;;;;;;2.22;0.63;;;;;;;;;;5074374;28;20028;-47
2022/03/07 04:14:30;;;;;;;1.45;0.73;;;;;;;;;;5074288;28;20029;-48
2022/03/07 04:16:57;;;;;;;1.00;0.70;;;;;;;;;;5074473;28;20158;-47
2022/03/07 04:19:23;;;;;;;0.95;0.70;;;;;;;;;;5074139;28;20021;-47
2022/03/07 04:21:49;;;;;;;0.90;0.60;;;;;;;;;;5073963;28;20047;-47
2022/03/07 04:24:15;;;;;;;1.10;0.70;;;;;;;;;;5074052;28;20487;-47
2022/03/07 04:26:42;;;;;;;1.27;0.52;;;;;;;;;;5074010;28;20032;-47
2022/03/07 04:29:09;;;;;;;1.77;0.90;;;;;;;;;;5073927;28;20060;-46
2022/03/07 04:31:35;;;;;;;0.85;0.57;;;;;;;;;;5074209;28;20028;-47
2022/03/07 04:34:02;;;;;;;1.58;0.90;;;;;;;;;;5073701;28;20082;-47
2022/03/07 04:36:28;;;;;;;1.35;0.60;;;;;;;;;;5073705;28;20495;-47
2022/03/07 04:38:54;;;;;;;0.90;0.60;;;;;;;;;;5073738;28;20458;-47
2022/03/07 04:41:20;;;;;;;1.13;0.60;;;;;;;;;;5073538;28;20060;-47
2022/03/07 04:43:46;;;;;;;1.85;0.70;;;;;;;;;;5073628;28;20036;-47
2022/03/07 04:46:12;;;;;;;2.72;0.60;;;;;;;;;;5073540;28;20059;-47
2022/03/07 04:48:38;;;;;;;1.27;0.65;;;;;;;;;;5073551;28;20060;-47
2022/03/07 04:51:04;;;;;;;1.10;0.98;;;;;;;;;;5073653;28;20368;-47
2022/03/07 04:53:30;;;;;;;0.55;0.55;;;;;;;;;;5073488;28;20070;-47
2022/03/07 04:55:57;;;;;;;1.70;0.80;;;;;;;;;;5073639;28;20027;-47
2022/03/07 04:58:23;;;;;;;1.48;0.88;;;;;;;;;;5073412;28;20514;-47
2022/03/07 05:06:31;;;;;;;1.80;0.80;;;;;;;;;;4955583;29;20400;-46
2022/03/07 05:08:57;;;;;;;1.17;0.60;;;;;;;;;;4955519;29;20085;-45
2022/03/07 05:11:24;;;;;;;1.10;0.70;;;;;;;;;;4955149;29;20027;-44
2022/03/07 05:13:50;;;;;;;1.02;0.57;;;;;;;;;;4955388;29;20450;-47
2022/03/07 05:16:16;;;;;;;0.68;0.60;;;;;;;;;;4955177;29;20094;-44
2022/03/07 05:18:42;;;;;;;0.60;0.60;;;;;;;;;;4955075;29;20200;-45
2022/03/07 05:21:08;;;;;;;3.25;0.80;;;;;;;;;;4954942;29;20122;-45
2022/03/07 05:23:33;;;;;;;1.67;0.85;;;;;;;;;;4954899;29;20043;-46
2022/03/07 05:26:00;;;;;;;2.17;0.60;;;;;;;;;;4954883;29;20034;-46
2022/03/07 05:28:25;;;;;;;2.60;0.68;;;;;;;;;;4954799;29;20532;-48
2022/03/07 05:30:51;;;;;;;1.70;0.65;;;;;;;;;;4954891;29;20027;-46
2022/03/07 05:33:17;;;;;;;1.67;0.70;;;;;;;;;;4954838;29;20609;-44
2022/03/07 05:35:43;;;;;;;1.60;0.60;;;;;;;;;;4954822;29;20027;-47
2022/03/07 05:38:09;;;;;;;0.98;0.70;;;;;;;;;;4954831;29;20106;-47
2022/03/07 05:40:35;;;;;;;1.00;0.80;;;;;;;;;;4954682;29;20023;-46
2022/03/07 05:43:01;;;;;;;0.82;0.52;;;;;;;;;;4954606;29;20051;-46
2022/03/07 05:45:28;;;;;;;1.02;0.70;;;;;;;;;;4954588;29;20116;-46
2022/03/07 05:47:54;;;;;;;1.05;0.88;;;;;;;;;;4954593;29;20089;-46
2022/03/07 05:50:20;;;;;;;1.17;0.82;;;;;;;;;;4954570;29;20031;-46
2022/03/07 05:52:46;;;;;;;1.55;0.60;;;;;;;;;;4954547;29;20123;-48
2022/03/07 05:55:12;;;;;;;1.38;0.75;;;;;;;;;;4954600;29;20070;-47
2022/03/07 05:57:38;;;;;;;1.75;0.63;;;;;;;;;;4954461;29;20474;-47
2022/03/07 06:00:08;;;;;;;0.80;0.60;;;;;;;;;;4954420;29;20386;-46
2022/03/07 06:02:34;;;;;;;;;;;;;;;;;;4954471;28;20087;-45
2022/03/07 06:05:00;;;;;;;1.40;0.80;;;;;;;;;;4954667;29;19902;-47
2022/03/07 06:07:26;;;;;;;0.98;0.65;;;;;;;;;;4954334;29;20043;-48
2022/03/07 06:09:52;;;;;;;0.90;0.80;;;;;;;;;;4954239;29;20397;-46
2022/03/07 06:12:18;;;;;;;1.20;0.80;;;;;;;;;;4954261;29;20136;-46
2022/03/07 06:14:44;;;;;;;1.02;0.50;;;;;;;;;;4954275;28;20034;-46
2022/03/07 06:17:10;;;;;;;0.90;0.73;;;;;;;;;;4954197;28;20027;-46
2022/03/07 06:19:36;;;;;;;0.52;0.52;;;;;;;;;;4954111;29;20038;-47
2022/03/07 06:22:02;;;;;;;2.05;0.98;;;;;;;;;;4954076;29;20079;-47
2022/03/07 06:24:29;;;;;;;1.90;0.65;;;;;;;;;;4954353;29;20422;-47
2022/03/07 06:26:56;;;;;;;0.98;0.80;;;;;;;;;;4954135;29;20019;-46
2022/03/07 06:29:22;;;;;;;1.10;0.90;;;;;;;;;;4954209;29;20038;-46
2022/03/07 06:31:48;;;;;;;2.83;0.75;;;;;;;;;;4954087;29;20074;-51
2022/03/07 06:34:14;;;;;;;6.72;0.70;;;;;;;;;;4954388;29;20107;-48
2022/03/07 06:36:40;;;;;;;1.27;0.80;;;;;;;;;;4953990;28;20533;-48
2022/03/07 06:39:06;;;;;;;1.17;0.77;;;;;;;;;;4954050;29;20079;-49
2022/03/07 06:41:33;;;;;;;1.38;0.95;;;;;;;;;;4953880;29;20031;-48
2022/03/07 06:44:00;;;;;;;1.60;0.80;;;;;;;;;;4953905;29;20031;-50
2022/03/07 06:46:26;;;;;;;0.82;0.65;;;;;;;;;;4953962;29;20024;-49
2022/03/07 06:48:52;;;;;;;0.63;0.60;;;;;;;;;;4953870;29;20035;-48
2022/03/07 06:51:20;;;;;;;1.52;0.80;;;;;;;;;;4953873;29;20050;-48
2022/03/07 06:53:46;;;;;;;1.00;0.70;;;;;;;;;;4954030;29;20035;-48
2022/03/07 06:56:12;;;;;;;1.58;1.02;;;;;;;;;;4953828;29;20035;-48
2022/03/07 06:58:38;;;;;;;0.93;0.90;;;;;;;;;;4954104;29;20024;-47
2022/03/07 07:01:05;;;;;;;2.22;0.90;;;;;;;;;;4953667;28;20043;-48
2022/03/07 07:03:31;;;;;;;1.75;0.75;;;;;;;;;;4953603;29;20043;-49
2022/03/07 07:05:57;;;;;;;2.72;0.90;;;;;;;;;;4953764;29;20038;-48
2022/03/07 07:08:22;;;;;;;3.22;0.80;;;;;;;;;;4953924;29;20031;-48
2022/03/07 07:10:48;;;;;;;2.35;0.80;;;;;;;;;;4953816;29;20046;-49
2022/03/07 07:13:14;;;;;;;1.08;0.77;;;;;;;;;;4953823;29;20024;-48
2022/03/07 07:15:43;;;;;;;1.75;0.85;;;;;;;;;;4953906;29;20066;-49
2022/03/07 07:18:09;;;;;;;2.03;1.05;;;;;;;;;;4953843;29;20466;-48
2022/03/07 07:20:36;;;;;;;3.60;1.20;;;;;;;;;;4954060;29;20038;-49
2022/03/07 07:23:02;;;;;;;1.17;0.73;;;;;;;;;;4953680;29;20047;-49
2022/03/07 07:25:28;;;;;;;1.83;1.08;;;;;;;;;;4953736;28;20031;-48
2022/03/07 07:27:54;;;;;;;1.13;0.88;;;;;;;;;;4956847;29;20031;-47
2022/03/07 07:30:22;;;;;;;1.05;0.93;;;;;;;;;;4957198;29;20151;-46
2022/03/07 07:32:48;;;;;;;2.97;1.08;;;;;;;;;;4939862;29;20516;-47
2022/03/07 07:35:14;;;;;;;3.75;0.95;;;;;;;;;;4957037;29;20024;-46
2022/03/07 07:37:40;;;;;;;3.80;0.95;;;;;;;;;;4956896;29;20470;-47
2022/03/07 07:40:07;;;;;;;2.95;1.10;;;;;;;;;;4956881;29;20028;-47
2022/03/07 07:42:33;;;;;;;1.77;0.80;;;;;;;;;;4957015;29;20039;-46
2022/03/07 07:44:59;;;;;;;0.70;0.68;;;;;;;;;;4957215;29;20075;-49
2022/03/07 07:47:25;;;;;;;1.85;1.20;;;;;;;;;;4956931;29;20474;-49
2022/03/07 07:49:51;;;;;;;2.03;1.00;;;;;;;;;;4956870;29;20050;-48
2022/03/07 07:52:17;;;;;;;1.70;1.38;;;;;;;;;;4957036;28;20034;-48
2022/03/07 07:54:43;;;;;;;2.30;1.10;;;;;;;;;;4956788;29;20497;-49
2022/03/07 07:57:12;;;;;;;1.30;1.02;;;;;;;;;;4956918;29;20097;-49
2022/03/07 07:59:38;;;;;;;2.35;1.00;;;;;;;;;;4956642;29;20023;-48
2022/03/07 08:02:04;;;;;;;3.45;1.23;;;;;;;;;;4956315;28;20058;-49
2022/03/07 08:04:30;;;;;;;1.98;0.80;;;;;;;;;;4956617;29;20390;-49
2022/03/07 08:06:56;;;;;;;4.40;0.98;;;;;;;;;;4956542;29;20031;-48
2022/03/07 08:09:22;;;;;;;0.98;0.88;;;;;;;;;;4956378;29;20438;-48
2022/03/07 08:11:48;;;;;;;2.92;0.95;;;;;;;;;;4956342;29;20035;-49
2022/03/07 08:14:14;;;;;;;2.88;0.90;;;;;;;;;;4956215;29;20029;-48
2022/03/07 08:16:40;;;;;;;1.17;0.73;;;;;;;;;;4956138;29;20385;-50
2022/03/07 08:19:06;;;;;;;1.05;0.80;;;;;;;;;;4956114;29;20031;-48
2022/03/07 08:21:32;;;;;;;1.50;1.20;;;;;;;;;;4956098;29;20046;-48
2022/03/07 08:24:00;;;;;;;1.30;0.93;;;;;;;;;;4956222;29;20023;-47
2022/03/07 08:26:27;;;;;;;3.35;1.13;;;;;;;;;;4956165;28;20031;-47
2022/03/07 08:28:52;;;;;;;1.20;0.75;;;;;;;;;;4956404;29;20031;-47
2022/03/07 08:31:18;;;;;;;3.72;0.80;;;;;;;;;;4938850;29;20084;-46
2022/03/07 08:33:44;;;;;;;2.40;0.82;;;;;;;;;;4938888;29;20094;-47
2022/03/07 08:36:10;;;;;;;2.20;0.77;;;;;;;;;;4956042;29;20418;-48
2022/03/07 08:38:36;;;;;;;2.63;0.95;;;;;;;;;;4954928;28;20032;-47
2022/03/07 08:41:02;;;;;;;2.13;0.70;;;;;;;;;;4956142;29;20024;-47
2022/03/07 08:43:28;;;;;;;1.90;1.00;;;;;;;;;;4955907;29;20042;-48
2022/03/07 08:45:54;;;;;;;1.55;1.20;;;;;;;;;;4955892;29;20032;-47
2022/03/07 08:48:20;;;;;;;1.95;1.00;;;;;;;;;;4955781;29;20508;-48
2022/03/07 08:50:48;;;;;;;1.80;0.88;;;;;;;;;;4956002;29;20027;-47
2022/03/07 08:53:15;;;;;;;2.33;1.20;;;;;;;;;;4955547;29;20390;-47
2022/03/07 08:55:41;;;;;;;1.98;0.82;;;;;;;;;;4955511;29;20027;-47
2022/03/07 08:58:07;;;;;;;1.42;0.75;;;;;;;;;;4955437;29;20035;-48
2022/03/07 09:00:33;;;;;;;1.67;0.80;;;;;;;;;;4955579;29;20121;-48
2022/03/07 09:03:00;;;;;;;1.95;0.70;;;;;;;;;;4955215;28;20126;-46
2022/03/07 09:05:26;;;;;;;1.48;0.73;;;;;;;;;;4955429;29;20605;-47
2022/03/07 09:07:52;;;;;;;1.70;1.02;;;;;;;;;;4955479;29;20024;-48
2022/03/07 09:10:18;;;;;;;1.25;0.68;;;;;;;;;;4955158;29;20046;-47
2022/03/07 09:12:44;;;;;;;1.00;0.70;;;;;;;;;;4955618;29;20392;-47
2022/03/07 09:15:10;;;;;;;1.85;1.00;;;;;;;;;;4955263;29;20114;-49
2022/03/07 09:17:36;;;;;;;1.45;0.80;;;;;;;;;;4955328;29;20493;-49
2022/03/07 09:20:02;;;;;;;1.67;0.70;;;;;;;;;;4955066;29;20493;-49
2022/03/07 09:22:28;;;;;;;1.38;0.80;;;;;;;;;;4954915;29;20122;-48
2022/03/07 09:24:55;;;;;;;1.15;0.70;;;;;;;;;;4954957;29;20027;-50
2022/03/07 09:27:21;;;;;;;0.90;0.50;;;;;;;;;;4954906;29;20031;-49
2022/03/07 09:29:47;;;;;;;0.68;0.57;;;;;;;;;;4954884;29;20034;-49
2022/03/07 09:32:13;;;;;;;0.95;0.70;;;;;;;;;;4954814;29;20086;-49
2022/03/07 09:34:39;;;;;;;1.23;0.70;;;;;;;;;;4954820;29;20136;-48
2022/03/07 09:37:06;;;;;;;1.38;0.40;;;;;;;;;;4954848;29;20483;-48
2022/03/07 09:39:35;;;;;;;0.88;0.70;;;;;;;;;;4954648;29;20031;-48
2022/03/07 09:42:01;;;;;;;1.58;0.68;;;;;;;;;;4954537;29;20402;-47
2022/03/07 09:44:28;;;;;;;1.25;0.77;;;;;;;;;;4954541;29;20106;-48
2022/03/07 09:46:56;;;;;;;0.95;0.60;;;;;;;;;;4954588;29;20035;-48
2022/03/07 09:49:22;;;;;;;1.08;0.90;;;;;;;;;;4954485;28;20032;-48
2022/03/07 09:51:48;;;;;;;1.02;0.65;;;;;;;;;;4954543;29;20034;-49
2022/03/07 09:54:14;;;;;;;1.85;0.60;;;;;;;;;;4954506;29;20028;-49
2022/03/07 09:56:40;;;;;;;1.23;0.57;;;;;;;;;;4954405;29;20046;-49
2022/03/07 09:59:07;;;;;;;2.60;0.93;;;;;;;;;;4954444;29;20402;-49
2022/03/07 10:01:33;;;;;;;8.80;1.08;;;;;;;;;;4954270;28;20035;-48
2022/03/07 10:04:15;;;;;;;1.08;0.85;;;;;;;;;;4954388;29;20031;-49
2022/03/07 10:06:53;;;;;;;0.85;0.57;;;;;;;;;;4954258;29;20046;-50
2022/03/07 10:09:20;;;;;;;2.05;0.80;;;;;;;;;;4954259;29;20027;-51
2022/03/07 10:11:56;;;;;;;1.08;0.70;;;;;;;;;;4954357;29;20039;-49
2022/03/07 10:14:47;;;;;;;1.77;0.75;;;;;;;;;;4954721;29;20035;-47
2022/03/07 10:17:20;;;;;;;1.38;0.73;;;;;;;;;;4954214;29;20090;-48
2022/03/07 10:19:47;;;;;;;0.73;0.50;;;;;;;;;;4954574;29;20038;-47
2022/03/07 10:22:26;;;;;;;2.55;0.65;;;;;;;;;;4954465;29;20118;-48
2022/03/07 10:25:07;;;;;;;1.48;0.65;;;;;;;;;;4954170;29;20069;-47
2022/03/07 10:27:41;;;;;;;2.63;0.60;;;;;;;;;;4954237;29;20067;-47
2022/03/07 10:30:13;;;;;;;1.10;0.60;;;;;;;;;;4954305;29;20367;-47
2022/03/07 10:32:39;;;;;;;2.00;0.50;;;;;;;;;;4954220;29;20031;-50
2022/03/07 10:35:06;;;;;;;0.73;0.50;;;;;;;;;;4954354;29;20032;-48
2022/03/07 10:37:41;;;;;;;2.50;0.70;;;;;;;;;;4954220;29;20032;-49
2022/03/07 10:40:11;;;;;;;0.85;0.70;;;;;;;;;;4954285;29;20041;-48
2022/03/07 10:42:44;;;;;;;0.40;0.33;;;;;;;;;;4954034;29;20070;-49
2022/03/07 10:45:10;;;;;;;2.65;0.82;;;;;;;;;;4954424;29;20035;-48
2022/03/07 10:47:36;;;;;;;3.25;0.75;;;;;;;;;;4954144;28;20031;-48
2022/03/07 10:50:03;;;;;;;1.77;0.95;;;;;;;;;;4954164;29;20496;-48
2022/03/07 10:52:43;;;;;;;1.83;0.70;;;;;;;;;;4954059;29;20494;-48
2022/03/07 10:55:11;;;;;;;2.15;0.40;;;;;;;;;;4954078;29;20069;-48
2022/03/07 10:57:38;;;;;;;0.50;0.50;;;;;;;;;;4953961;29;20031;-47
2022/03/07 11:00:06;;;;;;;3.85;0.60;;;;;;;;;;4953869;29;20027;-47
2022/03/07 11:02:38;;;;;;;1.88;0.57;;;;;;;;;;4956189;28;20134;-47
2022/03/07 11:05:07;;;;;;;0.50;0.40;;;;;;;;;;4957513;29;20050;-48
2022/03/07 11:07:33;;;;;;;1.23;0.52;;;;;;;;;;4957524;29;20023;-47
2022/03/07 11:09:59;;;;;;;2.05;0.60;;;;;;;;;;4957350;29;20110;-46
2022/03/07 11:12:27;;;;;;;2.50;0.60;;;;;;;;;;4957345;29;20546;-47
2022/03/07 11:14:53;;;;;;;4.78;0.70;;;;;;;;;;4957165;29;20023;-46
2022/03/07 11:17:19;;;;;;;1.77;0.50;;;;;;;;;;4957210;28;20455;-47
2022/03/07 11:19:47;;;;;;;0.85;0.60;;;;;;;;;;4957148;29;20114;-47
2022/03/07 11:22:15;;;;;;;0.93;0.50;;;;;;;;;;4957111;28;20039;-47
2022/03/07 11:24:41;;;;;;;3.10;0.50;;;;;;;;;;4957118;29;20031;-47
2022/03/07 11:27:08;;;;;;;2.20;0.30;;;;;;;;;;4957138;29;20502;-47
2022/03/07 11:29:34;;;;;;;1.95;1.00;;;;;;;;;;4957337;29;20028;-46
2022/03/07 11:32:02;;;;;;;2.25;0.60;;;;;;;;;;4956974;29;20059;-47
2022/03/07 11:34:28;;;;;;;5.13;1.35;;;;;;;;;;4957165;29;20066;-48
2022/03/07 11:36:54;;;;;;;1.67;0.50;;;;;;;;;;4956998;29;20067;-47
2022/03/07 11:39:36;;;;;;;0.85;0.38;;;;;;;;;;4956930;29;20549;-47
2022/03/07 11:42:13;;;;;;;1.67;0.55;;;;;;;;;;4956859;29;20035;-47
2022/03/07 11:44:42;;;;;;;0.80;0.45;;;;;;;;;;4957070;29;20257;-48
2022/03/07 11:47:09;;;;;;;0.45;0.38;;;;;;;;;;4956997;29;20363;-47
2022/03/07 11:49:35;;;;;;;0.68;0.40;;;;;;;;;;4956824;28;20118;-47
2022/03/07 11:52:02;;;;;;;2.08;0.45;;;;;;;;;;4956763;29;20073;-46
2022/03/07 11:54:28;;;;;;;1.10;0.70;;;;;;;;;;4956781;29;20086;-47
2022/03/07 11:57:05;;;;;;;0.63;0.43;;;;;;;;;;4956707;29;20111;-46
2022/03/07 11:59:31;;;;;;;0.70;0.50;;;;;;;;;;4956712;29;20082;-48
2022/03/07 12:01:57;;;;;;;1.00;0.60;;;;;;;;;;4956307;28;20122;-47
2022/03/07 12:04:23;;;;;;;2.75;0.50;;;;;;;;;;4957048;29;20047;-47
2022/03/07 12:06:51;;;;;;;2.22;0.30;;;;;;;;;;4956561;29;20058;-47
2022/03/07 12:09:35;;;;;;;0.75;0.43;;;;;;;;;;4956812;29;20426;-47
2022/03/07 12:12:01;;;;;;;2.38;0.40;;;;;;;;;;4956352;28;20027;-46
2022/03/07 12:14:28;;;;;;;1.50;0.60;;;;;;;;;;4956473;29;20110;-47
2022/03/07 12:16:55;;;;;;;0.75;0.40;;;;;;;;;;4956301;29;20042;-47
2022/03/07 12:19:22;;;;;;;0.82;0.40;;;;;;;;;;4956328;29;20035;-47
2022/03/07 12:21:48;;;;;;;0.57;0.40;;;;;;;;;;4956246;29;20035;-46
2022/03/07 12:24:15;;;;;;;1.00;0.60;;;;;;;;;;4956215;29;20039;-46
2022/03/07 12:26:48;;;;;;;0.88;0.55;;;;;;;;;;4956251;29;20027;-47
2022/03/07 12:29:14;;;;;;;0.50;0.50;;;;;;;;;;4956454;29;20108;-48
2022/03/07 12:31:47;;;;;;;0.77;0.40;;;;;;;;;;4956159;29;20086;-47
2022/03/07 12:34:13;;;;;;;0.70;0.43;;;;;;;;;;4956107;29;20070;-48
2022/03/07 12:36:39;;;;;;;0.75;0.43;;;;;;;;;;4956336;29;20070;-47
2022/03/07 12:39:05;;;;;;;1.10;0.40;;;;;;;;;;4955901;29;20070;-47
2022/03/07 12:41:36;;;;;;;0.90;0.40;;;;;;;;;;4955890;29;20536;-48
2022/03/07 12:44:03;;;;;;;1.50;0.57;;;;;;;;;;4955824;29;20027;-48
2022/03/07 12:46:29;;;;;;;0.60;0.50;;;;;;;;;;4955847;29;20102;-48
2022/03/07 12:48:56;;;;;;;2.63;0.65;;;;;;;;;;4955792;29;20114;-48
2022/03/07 12:51:23;;;;;;;1.17;0.30;;;;;;;;;;4955664;29;20035;-47
2022/03/07 12:53:50;;;;;;;0.77;0.40;;;;;;;;;;4955688;29;20023;-48
2022/03/07 12:56:17;;;;;;;1.13;0.35;;;;;;;;;;4955758;29;20027;-51
2022/03/07 12:59:01;;;;;;;1.27;0.52;;;;;;;;;;4955597;29;20110;-46
2022/03/07 13:01:27;;;;;;;0.40;0.40;;;;;;;;;;4955234;28;20065;-47
2022/03/07 13:03:54;;;;;;;7.47;0.82;;;;;;;;;;4955533;29;20035;-47
2022/03/07 13:06:21;;;;;;;2.10;0.50;;;;;;;;;;4955354;29;20492;-47
2022/03/07 13:08:53;;;;;;;1.40;0.50;;;;;;;;;;4955278;29;20032;-46
2022/03/07 13:11:41;;;;;;;1.13;0.52;;;;;;;;;;4955381;29;20038;-46
2022/03/07 13:14:07;;;;;;;2.40;0.40;;;;;;;;;;4955332;29;20497;-46
2022/03/07 13:16:35;;;;;;;1.05;0.40;;;;;;;;;;4955330;29;20062;-49
2022/03/07 13:19:06;;;;;;;1.45;0.52;;;;;;;;;;4955258;29;20119;-49
2022/03/07 13:21:33;;;;;;;0.55;0.30;;;;;;;;;;4955361;29;20111;-47
2022/03/07 13:24:00;;;;;;;0.90;0.50;;;;;;;;;;4954513;28;20046;-47
2022/03/07 13:26:27;;;;;;;0.93;0.40;;;;;;;;;;4955097;29;20031;-50
2022/03/07 13:29:07;;;;;;;1.85;0.50;;;;;;;;;;4954999;29;20063;-49
2022/03/07 13:31:43;;;;;;;0.55;0.32;;;;;;;;;;4955007;29;20541;-49
2022/03/07 13:34:09;;;;;;;1.40;0.50;;;;;;;;;;4955091;29;20148;-48
2022/03/07 13:36:41;;;;;;;0.60;0.50;;;;;;;;;;4955251;28;20027;-49
2022/03/07 13:39:16;;;;;;;0.85;0.50;;;;;;;;;;4954950;29;20027;-49
2022/03/07 13:41:57;;;;;;;0.40;0.40;;;;;;;;;;4954768;29;20034;-48
2022/03/07 13:44:23;;;;;;;;;;;;;;;;;;4955169;29;20037;-49
2022/03/07 13:47:00;;;;;;;1.48;0.60;;;;;;;;;;4954685;28;20343;-49
2022/03/07 13:49:28;;;;;;;0.70;0.40;;;;;;;;;;4954924;29;20064;-49
2022/03/07 13:51:57;;;;;;;0.75;0.38;;;;;;;;;;4954699;29;20035;-49
2022/03/07 13:54:23;;;;;;;0.70;0.60;;;;;;;;;;4954729;29;20381;-50
2022/03/07 13:56:49;;;;;;;2.33;0.30;;;;;;;;;;4954622;29;20106;-48
2022/03/07 13:59:16;;;;;;;0.88;0.40;;;;;;;;;;4954607;28;20102;-48
2022/03/07 14:01:42;;;;;;;0.57;0.40;;;;;;;;;;4954248;28;20085;-46
2022/03/07 14:04:14;;;;;;;0.47;0.40;;;;;;;;;;4954497;29;20090;-47
2022/03/07 14:06:44;;;;;;;0.80;0.40;;;;;;;;;;4954406;29;20024;-47
2022/03/07 14:09:15;;;;;;;0.40;0.40;;;;;;;;;;4954475;29;20028;-47
2022/03/07 14:11:42;;;;;;;1.35;0.45;;;;;;;;;;4954466;29;20111;-48
2022/03/07 14:14:24;;;;;;;0.55;0.40;;;;;;;;;;4954379;29;20046;-49
2022/03/07 14:16:50;;;;;;;0.47;0.30;;;;;;;;;;4954360;29;20389;-49
2022/03/07 14:19:17;;;;;;;0.68;0.40;;;;;;;;;;4954338;29;20031;-48
2022/03/07 14:21:43;;;;;;;1.25;0.70;;;;;;;;;;4954285;29;20024;-49
2022/03/07 14:24:09;;;;;;;0.30;0.30;;;;;;;;;;4954238;29;20042;-47
2022/03/07 14:26:35;;;;;;;0.80;0.50;;;;;;;;;;4954234;29;20517;-49
2022/03/07 14:29:04;;;;;;;1.52;0.45;;;;;;;;;;4954273;29;20098;-48
2022/03/07 14:31:39;;;;;;;1.38;0.55;;;;;;;;;;4954276;29;20024;-50
2022/03/07 14:34:07;;;;;;;1.50;0.60;;;;;;;;;;4954507;29;20414;-48
2022/03/07 14:36:33;;;;;;;1.30;0.50;;;;;;;;;;4955408;28;20106;-49
2022/03/07 14:38:59;;;;;;;1.02;0.57;;;;;;;;;;4958398;29;20035;-48
2022/03/07 14:41:25;;;;;;;0.50;0.47;;;;;;;;;;4958041;29;20609;-48
2022/03/07 14:43:51;;;;;;;0.73;0.50;;;;;;;;;;4958266;29;20046;-49
2022/03/07 14:46:18;;;;;;;0.82;0.60;;;;;;;;;;4958003;29;20071;-49
2022/03/07 14:48:43;;;;;;;1.05;0.40;;;;;;;;;;4958231;29;20023;-49